createdAt,value
2022-11-20T00:01:11.426Z,100229.50
2022-11-20T00:03:38.322Z,100233.53
2022-11-20T00:06:07.675Z,100233.59
2022-11-20T00:08:34.703Z,100227.88
2022-11-20T00:11:14.278Z,100222.56
2022-11-20T00:13:42.900Z,100235.53
2022-11-20T00:16:12.466Z,100233.75
2022-11-20T00:18:39.193Z,100244.03
2022-11-20T00:21:20.149Z,100240.09
2022-11-20T00:23:49.738Z,100238.53
2022-11-20T00:26:18.618Z,100247.59
2022-11-20T00:28:53.551Z,100248.56
2022-11-20T00:31:20.216Z,100246.88
2022-11-20T00:33:47.084Z,100256.75
2022-11-20T00:36:28.408Z,100252.38
2022-11-20T00:38:56.942Z,100248.28
2022-11-20T00:41:24.637Z,100254.50
2022-11-20T00:43:53.469Z,100251.13
2022-11-20T00:46:22.218Z,100246.88
2022-11-20T00:48:49.203Z,100255.78
2022-11-20T00:51:18.499Z,100259.00
2022-11-20T00:53:45.859Z,100266.22
2022-11-20T00:56:15.892Z,100256.19
2022-11-20T00:58:44.280Z,100263.94
2022-11-20T01:01:12.716Z,100263.22
2022-11-20T01:03:41.341Z,100271.13
2022-11-20T01:06:11.975Z,100272.28
2022-11-20T01:08:39.002Z,100271.84
2022-11-20T01:11:08.750Z,100271.44
2022-11-20T01:13:38.612Z,100269.47
2022-11-20T01:16:14.122Z,100269.91
2022-11-20T01:18:44.083Z,100283.16
2022-11-20T01:21:15.243Z,100267.63
2022-11-20T01:23:43.372Z,100274.25
2022-11-20T01:26:16.145Z,100271.88
2022-11-20T01:28:43.365Z,100268.22
2022-11-20T01:31:19.289Z,100266.97
2022-11-20T01:33:47.513Z,100272.16
2022-11-20T01:36:16.273Z,100266.97
2022-11-20T01:38:43.453Z,100278.63
2022-11-20T01:41:11.246Z,100284.69
2022-11-20T01:43:37.815Z,100275.25
2022-11-20T01:46:17.809Z,100273.44
2022-11-20T01:48:50.293Z,100280.19
2022-11-20T01:51:26.567Z,100276.66
2022-11-20T01:53:57.493Z,100281.69
2022-11-20T01:56:25.687Z,100278.47
2022-11-20T01:58:57.673Z,100280.13
2022-11-20T02:01:24.471Z,100293.50
2022-11-20T02:03:51.854Z,100280.38
2022-11-20T02:06:31.954Z,100294.06
2022-11-20T02:08:58.455Z,100292.94
2022-11-20T02:11:25.092Z,100283.91
2022-11-20T02:13:51.869Z,100282.34
2022-11-20T02:16:23.606Z,100274.34
2022-11-20T02:18:50.929Z,100288.25
2022-11-20T02:21:34.192Z,100289.97
2022-11-20T02:24:08.419Z,100283.06
2022-11-20T02:27:04.165Z,100290.38
2022-11-20T02:29:38.502Z,100285.03
2022-11-20T02:32:05.311Z,100281.25
2022-11-20T02:34:32.268Z,100278.56
2022-11-20T02:37:00.571Z,100290.13
2022-11-20T02:39:29.275Z,100281.50
2022-11-20T02:41:57.478Z,100295.47
2022-11-20T02:44:23.971Z,100290.06
2022-11-20T02:46:50.548Z,100290.50
2022-11-20T02:49:18.045Z,100291.63
2022-11-20T02:51:44.930Z,100288.47
2022-11-20T02:54:11.617Z,100282.44
2022-11-20T02:56:40.148Z,100285.09
2022-11-20T02:59:07.154Z,100280.59
2022-11-20T03:01:33.756Z,100289.63
2022-11-20T03:04:00.466Z,100273.84
2022-11-20T03:06:26.967Z,100281.16
2022-11-20T03:08:53.533Z,100293.53
2022-11-20T03:11:20.054Z,100283.97
2022-11-20T03:13:46.710Z,100284.69
2022-11-20T03:16:15.518Z,100291.28
2022-11-20T03:18:42.965Z,100291.94
2022-11-20T03:21:11.393Z,100299.25
2022-11-20T03:23:39.117Z,100295.16
2022-11-20T03:26:13.858Z,100292.75
2022-11-20T03:28:40.636Z,100296.84
2022-11-20T03:31:09.664Z,100286.69
2022-11-20T03:33:36.467Z,100300.31
2022-11-20T03:36:05.730Z,100302.84
2022-11-20T03:38:32.811Z,100299.88
2022-11-20T03:41:07.013Z,100300.53
2022-11-20T03:43:34.410Z,100296.81
2022-11-20T03:46:01.568Z,100306.50
2022-11-20T03:48:28.527Z,100303.41
2022-11-20T03:51:10.012Z,100301.78
2022-11-20T03:53:36.632Z,100300.94
2022-11-20T03:56:03.749Z,100321.38
2022-11-20T03:58:30.247Z,100322.47
2022-11-20T04:00:56.940Z,100327.69
2022-11-20T04:03:23.488Z,100325.41
2022-11-20T04:05:50.038Z,100331.03
2022-11-20T04:08:16.571Z,100329.00
2022-11-20T04:10:43.101Z,100336.69
2022-11-20T04:13:09.619Z,100334.53
2022-11-20T04:15:38.454Z,100326.78
2022-11-20T04:18:05.191Z,100337.88
2022-11-20T04:20:31.788Z,100335.59
2022-11-20T04:22:58.351Z,100334.38
2022-11-20T04:25:24.838Z,100336.47
2022-11-20T04:27:51.349Z,100337.19
2022-11-20T04:30:17.904Z,100336.34
2022-11-20T04:32:44.422Z,100330.19
2022-11-20T04:35:10.909Z,100338.78
2022-11-20T04:37:37.403Z,100333.81
2022-11-20T04:40:04.219Z,100338.06
2022-11-20T04:42:30.825Z,100334.66
2022-11-20T04:44:57.920Z,100339.16
2022-11-20T04:47:24.745Z,100346.19
2022-11-20T04:49:51.415Z,100349.97
2022-11-20T04:52:18.047Z,100342.44
2022-11-20T04:54:44.615Z,100353.63
2022-11-20T04:57:14.481Z,100351.19
2022-11-20T04:59:41.398Z,100350.47
2022-11-20T05:02:08.263Z,100340.31
2022-11-20T05:04:34.818Z,100354.38
2022-11-20T05:07:01.920Z,100348.59
2022-11-20T05:09:28.528Z,100345.28
2022-11-20T05:11:55.158Z,100347.88
2022-11-20T05:14:21.668Z,100355.97
2022-11-20T05:16:48.472Z,100353.44
2022-11-20T05:19:15.062Z,100370.88
2022-11-20T05:21:41.786Z,100358.19
2022-11-20T05:24:08.528Z,100357.59
2022-11-20T05:26:35.159Z,100368.50
2022-11-20T05:29:01.712Z,100364.75
2022-11-20T05:31:28.571Z,100362.97
2022-11-20T05:33:57.136Z,100372.78
2022-11-20T05:36:24.193Z,100367.97
2022-11-20T05:38:51.936Z,100369.03
2022-11-20T05:41:21.537Z,100367.81
2022-11-20T05:43:49.742Z,100368.41
2022-11-20T05:46:24.784Z,100377.28
2022-11-20T05:48:54.760Z,100383.47
2022-11-20T05:51:22.017Z,100387.09
2022-11-20T05:53:49.051Z,100384.81
2022-11-20T05:56:22.470Z,100395.94
2022-11-20T05:58:49.742Z,100396.78
2022-11-20T06:01:22.108Z,100398.88
2022-11-20T06:03:51.814Z,100392.66
2022-11-20T06:06:19.827Z,100391.13
2022-11-20T06:08:46.378Z,100404.19
2022-11-20T06:11:14.161Z,100400.69
2022-11-20T06:13:42.548Z,100399.09
2022-11-20T06:16:10.865Z,100404.56
2022-11-20T06:18:37.689Z,100411.44
2022-11-20T06:21:07.626Z,100405.03
2022-11-20T06:23:35.530Z,100405.91
2022-11-20T06:26:04.554Z,100412.81
2022-11-20T06:28:31.175Z,100406.34
2022-11-20T06:30:58.321Z,100413.28
2022-11-20T06:33:25.055Z,100409.03
2022-11-20T06:35:56.871Z,100418.38
2022-11-20T06:38:27.758Z,100421.50
2022-11-20T06:40:54.927Z,100415.09
2022-11-20T06:43:21.718Z,100422.47
2022-11-20T06:45:56.320Z,100433.38
2022-11-20T06:48:24.191Z,100432.78
2022-11-20T06:50:50.806Z,100445.63
2022-11-20T06:53:17.599Z,100444.63
2022-11-20T06:55:45.770Z,100454.44
2022-11-20T06:58:12.943Z,100446.66
2022-11-20T07:00:40.024Z,100452.81
2022-11-20T07:03:07.371Z,100456.44
2022-11-20T07:05:34.269Z,100468.22
2022-11-20T07:08:00.931Z,100458.25
2022-11-20T07:10:27.753Z,100466.66
2022-11-20T07:12:54.992Z,100461.19
2022-11-20T07:15:23.465Z,100470.19
2022-11-20T07:17:50.112Z,100479.31
2022-11-20T07:20:16.632Z,100479.75
2022-11-20T07:22:43.547Z,100487.84
2022-11-20T07:25:12.094Z,100489.47
2022-11-20T07:27:38.644Z,100489.44
2022-11-20T07:30:06.750Z,100493.47
2022-11-20T07:32:33.376Z,100490.84
2022-11-20T07:34:59.843Z,100495.56
2022-11-20T07:37:29.136Z,100504.34
2022-11-20T07:39:55.978Z,100488.94
2022-11-20T07:42:22.706Z,100495.75
2022-11-20T07:44:49.590Z,100504.25
2022-11-20T07:47:16.296Z,100501.53
2022-11-20T07:49:43.189Z,100506.78
2022-11-20T07:52:09.758Z,100506.13
2022-11-20T07:54:37.490Z,100512.25
2022-11-20T07:57:04.079Z,100511.78
2022-11-20T07:59:30.633Z,100513.94
2022-11-20T08:02:05.783Z,100505.28
2022-11-20T08:04:33.330Z,100516.47
2022-11-20T08:07:00.070Z,100507.75
2022-11-20T08:09:26.699Z,100519.22
2022-11-20T08:12:12.140Z,100515.44
2022-11-20T08:14:38.750Z,100514.03
2022-11-20T08:17:05.305Z,100529.66
2022-11-20T08:19:31.894Z,100529.63
2022-11-20T08:21:59.719Z,100534.41
2022-11-20T08:24:27.379Z,100530.84
2022-11-20T08:26:54.141Z,100528.13
2022-11-20T08:29:21.118Z,100543.44
2022-11-20T08:31:47.827Z,100544.28
2022-11-20T08:34:18.759Z,100545.41
2022-11-20T08:36:45.769Z,100534.81
2022-11-20T08:39:14.078Z,100534.97
2022-11-20T08:41:40.595Z,100534.69
2022-11-20T08:44:08.759Z,100537.22
2022-11-20T08:46:38.290Z,100544.53
2022-11-20T08:49:06.956Z,100543.00
2022-11-20T08:51:34.428Z,100547.16
2022-11-20T08:54:01.586Z,100548.44
2022-11-20T08:56:28.709Z,100546.53
2022-11-20T08:59:20.088Z,100549.72
2022-11-20T09:01:41.819Z,100549.03
2022-11-20T09:04:08.400Z,100552.44
2022-11-20T09:06:39.271Z,100561.00
2022-11-20T09:09:07.181Z,100560.56
2022-11-20T09:11:35.293Z,100558.31
2022-11-20T09:14:03.608Z,100557.25
2022-11-20T09:16:30.506Z,100555.13
2022-11-20T09:19:20.260Z,100564.66
2022-11-20T09:21:43.606Z,100575.34
2022-11-20T09:24:10.343Z,100571.78
2022-11-20T09:26:36.979Z,100577.81
2022-11-20T09:29:03.595Z,100574.00
2022-11-20T09:31:30.140Z,100579.53
2022-11-20T09:33:56.710Z,100574.50
2022-11-20T09:36:23.301Z,100566.09
2022-11-20T09:38:50.160Z,100574.00
2022-11-20T09:41:36.832Z,100572.75
2022-11-20T09:44:33.696Z,100577.59
2022-11-20T09:47:12.210Z,100572.75
2022-11-20T09:49:57.316Z,100575.91
2022-11-20T09:52:29.614Z,100573.97
2022-11-20T09:54:56.527Z,100573.81
2022-11-20T09:57:32.987Z,100570.41
2022-11-20T10:00:06.040Z,100561.38
2022-11-20T10:03:14.867Z,100571.03
2022-11-20T10:05:48.346Z,100565.47
2022-11-20T10:08:25.938Z,100571.56
2022-11-20T10:11:21.870Z,100564.97
2022-11-20T10:13:53.977Z,100557.66
2022-11-20T10:16:23.838Z,100571.50
2022-11-20T10:19:29.110Z,100558.06
2022-11-20T10:22:12.344Z,100557.06
2022-11-20T10:25:06.897Z,100546.78
2022-11-20T10:27:33.394Z,100549.53
2022-11-20T10:30:02.929Z,100551.00
2022-11-20T10:32:39.809Z,100550.38
2022-11-20T10:35:15.557Z,100544.91
2022-11-20T10:37:46.511Z,100532.09
2022-11-20T10:40:35.213Z,100539.47
2022-11-20T10:43:33.662Z,100544.91
2022-11-20T10:46:06.155Z,100535.69
2022-11-20T10:48:33.473Z,100538.41
2022-11-20T10:51:07.299Z,100539.84
2022-11-20T10:53:45.104Z,100530.84
2022-11-20T10:56:25.827Z,100529.19
2022-11-20T10:59:05.704Z,100532.75
2022-11-20T11:01:32.244Z,100535.69
2022-11-20T11:03:59.787Z,100534.22
2022-11-20T11:06:39.818Z,100537.34
2022-11-20T11:09:44.468Z,100535.41
2022-11-20T11:12:12.000Z,100522.84
2022-11-20T11:14:51.284Z,100527.69
2022-11-20T11:17:31.865Z,100523.50
2022-11-20T11:20:06.221Z,100519.31
2022-11-20T11:22:35.520Z,100519.28
2022-11-20T11:25:02.523Z,100514.47
2022-11-20T11:27:29.297Z,100513.41
2022-11-20T11:30:15.240Z,100509.47
2022-11-20T11:32:42.327Z,100502.06
2022-11-20T11:35:24.901Z,100502.69
2022-11-20T11:37:54.906Z,100496.84
2022-11-20T11:40:26.307Z,100497.63
2022-11-20T11:43:00.065Z,100501.28
2022-11-20T11:45:27.301Z,100494.16
2022-11-20T11:47:57.558Z,100487.41
2022-11-20T11:50:30.143Z,100488.47
2022-11-20T11:52:59.685Z,100490.34
2022-11-20T11:55:26.192Z,100488.44
2022-11-20T11:57:52.652Z,100495.84
2022-11-20T12:00:22.103Z,100495.13
2022-11-20T12:02:51.432Z,100490.41
2022-11-20T12:05:23.144Z,100495.41
2022-11-20T12:07:59.052Z,100496.09
2022-11-20T12:10:37.432Z,100496.28
2022-11-20T12:13:27.237Z,100498.38
2022-11-20T12:15:54.324Z,100489.88
2022-11-20T12:18:22.683Z,100484.88
2022-11-20T12:21:12.820Z,100481.41
2022-11-20T12:23:57.876Z,100486.25
2022-11-20T12:26:29.570Z,100472.75
2022-11-20T12:29:10.855Z,100471.28
2022-11-20T12:31:53.392Z,100463.28
2022-11-20T12:34:32.072Z,100472.13
2022-11-20T12:37:37.939Z,100457.66
2022-11-20T12:40:29.333Z,100461.78
2022-11-20T12:43:21.122Z,100461.66
2022-11-20T12:45:53.563Z,100457.50
2022-11-20T12:48:32.297Z,100454.88
2022-11-20T12:51:15.118Z,100462.16
2022-11-20T12:54:21.227Z,100459.47
2022-11-20T12:57:05.760Z,100462.03
2022-11-20T12:59:50.554Z,100452.69
2022-11-20T13:02:26.623Z,100450.78
2022-11-20T13:05:11.569Z,100445.84
2022-11-20T13:07:38.863Z,100443.72
2022-11-20T13:10:14.963Z,100446.28
2022-11-20T13:12:56.132Z,100436.06
2022-11-20T13:15:49.981Z,100442.22
2022-11-20T13:18:17.122Z,100444.47
2022-11-20T13:20:45.505Z,100436.03
2022-11-20T13:23:12.793Z,100446.59
2022-11-20T13:25:40.864Z,100436.97
2022-11-20T13:28:10.401Z,100444.75
2022-11-20T13:30:49.448Z,100442.50
2022-11-20T13:33:36.141Z,100442.25
2022-11-20T13:36:08.847Z,100444.31
2022-11-20T13:38:48.436Z,100433.63
2022-11-20T13:41:28.671Z,100436.88
2022-11-20T13:43:59.842Z,100422.59
2022-11-20T13:46:46.356Z,100428.19
2022-11-20T13:49:27.283Z,100427.34
2022-11-20T13:52:16.045Z,100418.56
2022-11-20T13:55:03.669Z,100421.94
2022-11-20T13:57:36.057Z,100417.91
2022-11-20T14:00:15.729Z,100425.38
2022-11-20T14:02:44.008Z,100427.69
2022-11-20T14:05:22.062Z,100426.94
2022-11-20T14:07:50.357Z,100427.31
2022-11-20T14:10:32.412Z,100426.06
2022-11-20T14:13:10.454Z,100426.06
2022-11-20T14:15:43.324Z,100434.38
2022-11-20T14:18:25.611Z,100426.06
2022-11-20T14:20:52.225Z,100423.44
2022-11-20T14:23:30.498Z,100417.91
2022-11-20T14:25:57.805Z,100416.78
2022-11-20T14:28:26.989Z,100431.88
2022-11-20T14:30:54.542Z,100429.38
2022-11-20T14:33:25.797Z,100423.78
2022-11-20T14:35:57.306Z,100416.69
2022-11-20T14:38:29.749Z,100420.25
2022-11-20T14:41:07.938Z,100415.28
2022-11-20T14:43:36.904Z,100425.47
2022-11-20T14:46:06.644Z,100419.94
2022-11-20T14:48:39.213Z,100417.56
2022-11-20T14:51:05.866Z,100414.25
2022-11-20T14:53:32.427Z,100420.38
2022-11-20T14:56:02.009Z,100421.63
2022-11-20T14:58:31.382Z,100419.44
2022-11-20T15:01:05.296Z,100416.78
2022-11-20T15:03:37.332Z,100427.28
2022-11-20T15:06:05.912Z,100424.97
2022-11-20T15:08:32.547Z,100429.38
2022-11-20T15:10:59.615Z,100430.44
2022-11-20T15:13:39.350Z,100420.47
2022-11-20T15:16:24.199Z,100418.28
2022-11-20T15:18:51.185Z,100427.91
2022-11-20T15:21:20.920Z,100433.13
2022-11-20T15:23:48.223Z,100427.06
2022-11-20T15:26:20.431Z,100434.69
2022-11-20T15:28:50.884Z,100440.44
2022-11-20T15:31:20.395Z,100445.97
2022-11-20T15:33:47.342Z,100451.69
2022-11-20T15:36:14.303Z,100448.31
2022-11-20T15:38:41.467Z,100450.31
2022-11-20T15:41:08.645Z,100450.75
2022-11-20T15:43:35.227Z,100447.53
2022-11-20T15:46:05.446Z,100440.41
2022-11-20T15:48:47.610Z,100446.44
2022-11-20T15:51:35.929Z,100445.03
2022-11-20T15:54:21.726Z,100448.34
2022-11-20T15:56:52.185Z,100450.47
2022-11-20T15:59:20.168Z,100451.06
2022-11-20T16:01:46.846Z,100457.53
2022-11-20T16:04:17.486Z,100457.50
2022-11-20T16:06:44.222Z,100455.78
2022-11-20T16:09:11.597Z,100464.72
2022-11-20T16:11:38.619Z,100460.81
2022-11-20T16:14:25.444Z,100458.75
2022-11-20T16:16:59.475Z,100470.06
2022-11-20T16:19:26.221Z,100474.69
2022-11-20T16:21:55.209Z,100475.59
2022-11-20T16:24:27.061Z,100489.84
2022-11-20T16:26:57.038Z,100493.31
2022-11-20T16:29:24.385Z,100484.31
2022-11-20T16:31:52.218Z,100495.50
2022-11-20T16:34:19.515Z,100477.28
2022-11-20T16:36:46.109Z,100484.38
2022-11-20T16:39:20.397Z,100479.34
2022-11-20T16:41:50.981Z,100495.44
2022-11-20T16:44:18.104Z,100493.50
2022-11-20T16:46:45.807Z,100487.50
2022-11-20T16:49:14.458Z,100487.94
2022-11-20T16:51:42.135Z,100484.19
2022-11-20T16:54:16.406Z,100489.81
2022-11-20T16:57:08.155Z,100491.97
2022-11-20T16:59:34.727Z,100496.53
2022-11-20T17:02:03.358Z,100490.91
2022-11-20T17:07:14.672Z,100501.53
2022-11-20T17:09:41.328Z,100499.16
2022-11-20T17:12:12.149Z,100504.13
2022-11-20T17:14:39.819Z,100498.34
2022-11-20T17:17:06.384Z,100488.47
2022-11-20T17:19:34.289Z,100494.97
2022-11-20T17:22:00.984Z,100497.53
2022-11-20T17:24:31.964Z,100499.81
2022-11-20T17:26:59.242Z,100500.53
2022-11-20T17:29:25.861Z,100496.19
2022-11-20T17:31:54.434Z,100506.63
2022-11-20T17:34:21.462Z,100514.25
2022-11-20T17:36:49.542Z,100504.38
2022-11-20T17:39:17.340Z,100501.56
2022-11-20T17:41:44.521Z,100505.09
2022-11-20T17:44:12.867Z,100497.47
2022-11-20T17:46:39.890Z,100497.16
2022-11-20T17:49:08.924Z,100500.97
2022-11-20T17:51:35.442Z,100509.13
2022-11-20T17:54:09.591Z,100493.59
2022-11-20T17:56:55.283Z,100503.19
2022-11-20T17:59:22.653Z,100505.47
2022-11-20T18:01:50.573Z,100501.22
2022-11-20T18:04:17.894Z,100505.31
2022-11-20T18:06:44.475Z,100504.22
2022-11-20T18:09:12.102Z,100512.28
2022-11-20T18:11:41.282Z,100511.88
2022-11-20T18:14:30.782Z,100511.56
2022-11-20T18:17:00.116Z,100514.25
2022-11-20T18:19:32.409Z,100523.84
2022-11-20T18:22:04.113Z,100518.50
2022-11-20T18:24:32.790Z,100518.16
2022-11-20T18:27:00.209Z,100530.69
2022-11-20T18:29:27.674Z,100526.28
2022-11-20T18:31:54.620Z,100533.19
2022-11-20T18:34:21.566Z,100532.06
2022-11-20T18:36:49.488Z,100527.28
2022-11-20T18:39:16.685Z,100525.41
2022-11-20T18:42:03.955Z,100535.41
2022-11-20T18:44:51.101Z,100528.56
2022-11-20T18:47:27.781Z,100531.50
2022-11-20T18:49:57.183Z,100523.16
2022-11-20T18:52:26.960Z,100525.84
2022-11-20T18:54:56.259Z,100525.53
2022-11-20T18:57:25.589Z,100526.41
2022-11-20T18:59:53.709Z,100527.97
2022-11-20T19:02:20.962Z,100519.22
2022-11-20T19:04:47.868Z,100518.91
2022-11-20T19:07:15.596Z,100518.06
2022-11-20T19:09:45.749Z,100508.75
2022-11-20T19:12:13.569Z,100511.00
2022-11-20T19:14:40.149Z,100495.84
2022-11-20T19:17:07.455Z,100499.50
2022-11-20T19:19:37.228Z,100496.41
2022-11-20T19:22:25.549Z,100499.72
2022-11-20T19:24:52.157Z,100504.75
2022-11-20T19:27:19.073Z,100495.31
2022-11-20T19:29:45.682Z,100498.69
2022-11-20T19:32:13.972Z,100497.69
2022-11-20T19:34:43.763Z,100502.09
2022-11-20T19:37:10.430Z,100495.31
2022-11-20T19:39:37.781Z,100498.81
2022-11-20T19:42:04.363Z,100485.56
2022-11-20T19:44:33.300Z,100492.88
2022-11-20T19:47:00.832Z,100492.16
2022-11-20T19:49:29.348Z,100495.84
2022-11-20T19:51:56.848Z,100489.44
2022-11-20T19:54:23.756Z,100493.50
2022-11-20T19:56:50.643Z,100485.00
2022-11-20T19:59:18.033Z,100490.47
2022-11-20T20:02:00.589Z,100483.72
2022-11-20T20:04:27.805Z,100478.59
2022-11-20T20:06:54.379Z,100473.66
2022-11-20T20:09:23.840Z,100475.81
2022-11-20T20:11:54.086Z,100470.88
2022-11-20T20:14:24.335Z,100450.66
2022-11-20T20:16:56.159Z,100464.22
2022-11-20T20:19:23.133Z,100470.28
2022-11-20T20:21:50.153Z,100475.88
2022-11-20T20:24:16.982Z,100478.88
2022-11-20T20:26:47.441Z,100477.66
2022-11-20T20:29:14.203Z,100470.47
2022-11-20T20:31:40.893Z,100470.59
2022-11-20T20:34:07.825Z,100474.50
2022-11-20T20:36:39.829Z,100484.22
2022-11-20T20:39:06.467Z,100484.47
2022-11-20T20:41:33.093Z,100480.50
2022-11-20T20:44:18.284Z,100478.81
2022-11-20T20:46:44.850Z,100483.31
2022-11-20T20:49:11.732Z,100488.06
2022-11-20T20:51:38.698Z,100476.19
2022-11-20T20:54:05.645Z,100478.13
2022-11-20T20:56:32.320Z,100468.91
2022-11-20T20:58:59.134Z,100461.19
2022-11-20T21:01:28.723Z,100458.88
2022-11-20T21:03:56.496Z,100452.19
2022-11-20T21:06:23.648Z,100457.53
2022-11-20T21:08:50.643Z,100459.75
2022-11-20T21:11:21.141Z,100457.31
2022-11-20T21:13:50.720Z,100462.06
2022-11-20T21:16:19.350Z,100472.63
2022-11-20T21:18:46.684Z,100465.59
2022-11-20T21:21:33.417Z,100471.19
2022-11-20T21:24:00.406Z,100467.69
2022-11-20T21:26:27.030Z,100470.09
2022-11-20T21:28:54.936Z,100468.13
2022-11-20T21:31:24.924Z,100469.84
2022-11-20T21:33:54.789Z,100470.34
2022-11-20T21:36:24.078Z,100476.53
2022-11-20T21:38:54.259Z,100478.47
2022-11-20T21:41:21.117Z,100468.28
2022-11-20T21:44:09.203Z,100470.59
2022-11-20T21:46:38.625Z,100479.91
2022-11-20T21:49:05.201Z,100478.94
2022-11-20T21:51:31.840Z,100477.38
2022-11-20T21:54:00.556Z,100486.47
2022-11-20T21:56:27.926Z,100486.63
2022-11-20T21:58:55.536Z,100487.97
2022-11-20T22:01:29.126Z,100491.88
2022-11-20T22:03:58.499Z,100485.09
2022-11-20T22:06:25.956Z,100486.75
2022-11-20T22:08:53.622Z,100489.91
2022-11-20T22:11:21.762Z,100493.56
2022-11-20T22:14:07.572Z,100492.97
2022-11-20T22:16:35.585Z,100500.84
2022-11-20T22:19:02.619Z,100506.66
2022-11-20T22:21:39.401Z,100513.81
2022-11-20T22:24:13.745Z,100516.63
2022-11-20T22:27:02.451Z,100530.09
2022-11-20T22:29:29.132Z,100524.75
2022-11-20T22:31:55.730Z,100521.88
2022-11-20T22:34:22.629Z,100521.25
2022-11-20T22:36:49.765Z,100509.25
2022-11-20T22:39:16.448Z,100521.84
2022-11-20T22:41:43.036Z,100523.94
2022-11-20T22:44:13.555Z,100522.22
2022-11-20T22:46:40.069Z,100511.78
2022-11-20T22:49:08.793Z,100516.28
2022-11-20T22:51:41.635Z,100516.41
2022-11-20T22:54:11.493Z,100518.34
2022-11-20T22:56:39.402Z,100513.00
2022-11-20T22:59:37.036Z,100507.69
2022-11-20T23:02:03.593Z,100511.94
2022-11-20T23:04:34.286Z,100529.38
2022-11-20T23:07:00.871Z,100517.50
2022-11-20T23:09:27.448Z,100520.75
2022-11-20T23:11:54.012Z,100535.44
2022-11-20T23:14:24.932Z,100528.28
2022-11-20T23:16:54.051Z,100525.75
2022-11-20T23:19:29.076Z,100528.66
2022-11-20T23:21:55.597Z,100523.41
2022-11-20T23:24:22.156Z,100527.44
2022-11-20T23:26:48.737Z,100522.09
2022-11-20T23:29:15.427Z,100523.13
2022-11-20T23:31:42.162Z,100529.22
2022-11-20T23:34:08.668Z,100517.56
2022-11-20T23:36:35.226Z,100511.94
2022-11-20T23:39:01.766Z,100506.16
2022-11-20T23:41:28.374Z,100503.22
2022-11-20T23:43:54.959Z,100495.34
2022-11-20T23:46:21.537Z,100488.13
2022-11-20T23:48:48.046Z,100471.00
2022-11-20T23:51:14.725Z,100450.84
2022-11-20T23:53:41.511Z,100467.41
2022-11-20T23:56:08.290Z,100461.28
2022-11-20T23:58:38.709Z,100459.50
